Assesse, Belgium
Current Conditions -  °F | °C
As of 2:55 PM on Wednesday 26 Nov 2014 (Local Time) from EBFS Reporting Station
Haze Haze  
Wind Chill: 43°   Ceiling: 600
Heat Index: 46°   Visibility: 3mi
Dew Point: 45°   Wind: 7mph
Humidity: 93%   Direction: 140°SE
Pressure: 29.85"   Gusts: NA
Location:  50.37°N, 5.02°E
Report Text: EBFS 261355Z 14006KT 5000 BR FEW003 SCT004 BKN006 08/07 Q1011 YLO YLO TEMPO AMB
Loading
Personal Weather Stations






























Interactive Weather Map New forecast layout! Learn more

10-Day Weather Forecast

Advertisements
Track Severe Weather on mobile